sensor_id;sensor_type;location;lat;lon;timestamp;P1;durP1;ratioP1;P2;durP2;ratioP2
64550;SDS011;50945;44.472;-123.352;2023-05-27T00:01:46;5.72;;;3.97;;
64550;SDS011;50945;44.472;-123.352;2023-05-27T00:04:12;4.38;;;3.55;;
64550;SDS011;50945;44.472;-123.352;2023-05-27T00:09:07;4.57;;;3.58;;
64550;SDS011;50945;44.472;-123.352;2023-05-27T00:11:34;6.22;;;4.07;;
64550;SDS011;50945;44.472;-123.352;2023-05-27T00:14:00;6.57;;;4.70;;
64550;SDS011;50945;44.472;-123.352;2023-05-27T00:18:53;6.15;;;3.60;;
64550;SDS011;50945;44.472;-123.352;2023-05-27T00:21:19;4.47;;;3.90;;
64550;SDS011;50945;44.472;-123.352;2023-05-27T00:23:46;5.82;;;4.20;;
64550;SDS011;50945;44.472;-123.352;2023-05-27T00:26:12;4.68;;;3.90;;
64550;SDS011;50945;44.472;-123.352;2023-05-27T00:28:39;6.03;;;3.60;;
64550;SDS011;50945;44.472;-123.352;2023-05-27T00:31:05;6.43;;;3.92;;
64550;SDS011;50945;44.472;-123.352;2023-05-27T00:33:31;5.60;;;3.70;;
64550;SDS011;50945;44.472;-123.352;2023-05-27T00:38:26;7.22;;;3.53;;
64550;SDS011;50945;44.472;-123.352;2023-05-27T00:43:18;11.73;;;3.88;;
64550;SDS011;50945;44.472;-123.352;2023-05-27T00:45:45;7.22;;;3.75;;
64550;SDS011;50945;44.472;-123.352;2023-05-27T00:48:11;6.32;;;3.75;;
64550;SDS011;50945;44.472;-123.352;2023-05-27T00:50:37;5.80;;;3.92;;
64550;SDS011;50945;44.472;-123.352;2023-05-27T00:55:30;5.70;;;4.07;;
64550;SDS011;50945;44.472;-123.352;2023-05-27T01:00:22;4.78;;;3.80;;
64550;SDS011;50945;44.472;-123.352;2023-05-27T01:02:48;9.13;;;4.22;;
64550;SDS011;50945;44.472;-123.352;2023-05-27T01:05:16;7.25;;;4.30;;
64550;SDS011;50945;44.472;-123.352;2023-05-27T01:07:54;6.32;;;3.75;;
64550;SDS011;50945;44.472;-123.352;2023-05-27T01:10:43;5.22;;;3.97;;
64550;SDS011;50945;44.472;-123.352;2023-05-27T01:13:35;11.00;;;3.67;;
64550;SDS011;50945;44.472;-123.352;2023-05-27T01:16:27;9.25;;;3.95;;
64550;SDS011;50945;44.472;-123.352;2023-05-27T01:18:56;6.82;;;3.65;;
64550;SDS011;50945;44.472;-123.352;2023-05-27T01:21:29;5.75;;;3.90;;
64550;SDS011;50945;44.472;-123.352;2023-05-27T01:24:02;4.28;;;3.50;;
64550;SDS011;50945;44.472;-123.352;2023-05-27T01:26:28;8.18;;;3.85;;
64550;SDS011;50945;44.472;-123.352;2023-05-27T01:31:26;4.70;;;4.03;;
64550;SDS011;50945;44.472;-123.352;2023-05-27T01:34:07;6.13;;;3.90;;
64550;SDS011;50945;44.472;-123.352;2023-05-27T01:36:38;5.40;;;3.80;;
64550;SDS011;50945;44.472;-123.352;2023-05-27T01:39:12;6.30;;;3.88;;
64550;SDS011;50945;44.472;-123.352;2023-05-27T01:41:40;8.00;;;4.15;;
64550;SDS011;50945;44.472;-123.352;2023-05-27T01:44:08;6.57;;;3.92;;
64550;SDS011;50945;44.472;-123.352;2023-05-27T01:46:36;6.47;;;3.75;;
64550;SDS011;50945;44.472;-123.352;2023-05-27T01:49:02;8.27;;;3.80;;
64550;SDS011;50945;44.472;-123.352;2023-05-27T01:51:29;7.25;;;3.53;;
64550;SDS011;50945;44.472;-123.352;2023-05-27T01:53:57;5.05;;;3.60;;
64550;SDS011;50945;44.472;-123.352;2023-05-27T01:56:23;7.63;;;3.45;;
64550;SDS011;50945;44.472;-123.352;2023-05-27T01:58:49;5.63;;;3.35;;
64550;SDS011;50945;44.472;-123.352;2023-05-27T02:01:16;5.80;;;3.30;;
64550;SDS011;50945;44.472;-123.352;2023-05-27T02:03:42;6.25;;;3.28;;
64550;SDS011;50945;44.472;-123.352;2023-05-27T02:06:08;4.70;;;3.30;;
64550;SDS011;50945;44.472;-123.352;2023-05-27T02:08:34;7.05;;;3.33;;
64550;SDS011;50945;44.472;-123.352;2023-05-27T02:13:26;5.80;;;3.63;;
64550;SDS011;50945;44.472;-123.352;2023-05-27T02:18:18;8.20;;;3.78;;
64550;SDS011;50945;44.472;-123.352;2023-05-27T02:20:46;6.05;;;4.10;;
64550;SDS011;50945;44.472;-123.352;2023-05-27T02:23:14;7.07;;;4.00;;
64550;SDS011;50945;44.472;-123.352;2023-05-27T02:25:44;5.50;;;3.60;;
64550;SDS011;50945;44.472;-123.352;2023-05-27T02:28:10;4.78;;;3.75;;
64550;SDS011;50945;44.472;-123.352;2023-05-27T02:30:37;6.43;;;3.67;;
64550;SDS011;50945;44.472;-123.352;2023-05-27T02:33:03;5.28;;;4.05;;
64550;SDS011;50945;44.472;-123.352;2023-05-27T02:35:29;4.78;;;3.60;;
64550;SDS011;50945;44.472;-123.352;2023-05-27T02:37:55;5.90;;;3.70;;
64550;SDS011;50945;44.472;-123.352;2023-05-27T02:40:28;7.20;;;4.03;;
64550;SDS011;50945;44.472;-123.352;2023-05-27T02:45:23;4.72;;;3.97;;
64550;SDS011;50945;44.472;-123.352;2023-05-27T02:47:50;6.25;;;3.40;;
64550;SDS011;50945;44.472;-123.352;2023-05-27T02:50:16;5.22;;;3.70;;
64550;SDS011;50945;44.472;-123.352;2023-05-27T02:52:42;5.47;;;3.70;;
64550;SDS011;50945;44.472;-123.352;2023-05-27T02:55:11;4.95;;;3.58;;
64550;SDS011;50945;44.472;-123.352;2023-05-27T02:57:38;5.82;;;3.55;;
64550;SDS011;50945;44.472;-123.352;2023-05-27T03:00:07;7.70;;;3.50;;
64550;SDS011;50945;44.472;-123.352;2023-05-27T03:02:34;5.95;;;3.88;;
64550;SDS011;50945;44.472;-123.352;2023-05-27T03:05:01;5.93;;;3.60;;
64550;SDS011;50945;44.472;-123.352;2023-05-27T03:07:30;6.60;;;3.50;;
64550;SDS011;50945;44.472;-123.352;2023-05-27T03:09:57;6.30;;;3.75;;
64550;SDS011;50945;44.472;-123.352;2023-05-27T03:12:23;6.32;;;3.13;;
64550;SDS011;50945;44.472;-123.352;2023-05-27T03:14:52;5.80;;;3.20;;
64550;SDS011;50945;44.472;-123.352;2023-05-27T03:17:19;8.23;;;3.80;;
64550;SDS011;50945;44.472;-123.352;2023-05-27T03:19:48;6.60;;;3.70;;
64550;SDS011;50945;44.472;-123.352;2023-05-27T03:22:15;4.60;;;3.45;;
64550;SDS011;50945;44.472;-123.352;2023-05-27T03:24:44;9.35;;;4.38;;
64550;SDS011;50945;44.472;-123.352;2023-05-27T03:27:11;5.30;;;3.67;;
64550;SDS011;50945;44.472;-123.352;2023-05-27T03:29:37;7.28;;;4.20;;
64550;SDS011;50945;44.472;-123.352;2023-05-27T03:32:03;6.22;;;3.42;;
64550;SDS011;50945;44.472;-123.352;2023-05-27T03:34:30;4.20;;;3.30;;
64550;SDS011;50945;44.472;-123.352;2023-05-27T03:36:56;7.72;;;3.45;;
64550;SDS011;50945;44.472;-123.352;2023-05-27T03:39:22;5.28;;;3.33;;
64550;SDS011;50945;44.472;-123.352;2023-05-27T03:41:52;5.50;;;3.50;;
64550;SDS011;50945;44.472;-123.352;2023-05-27T03:44:18;5.70;;;3.28;;
64550;SDS011;50945;44.472;-123.352;2023-05-27T03:46:49;6.18;;;3.80;;
64550;SDS011;50945;44.472;-123.352;2023-05-27T03:49:15;4.80;;;4.00;;
64550;SDS011;50945;44.472;-123.352;2023-05-27T03:51:42;5.93;;;3.70;;
64550;SDS011;50945;44.472;-123.352;2023-05-27T03:54:08;6.05;;;3.45;;
64550;SDS011;50945;44.472;-123.352;2023-05-27T03:56:34;5.75;;;3.78;;
64550;SDS011;50945;44.472;-123.352;2023-05-27T03:59:03;4.45;;;3.65;;
64550;SDS011;50945;44.472;-123.352;2023-05-27T04:01:29;10.98;;;4.25;;
64550;SDS011;50945;44.472;-123.352;2023-05-27T04:04:00;7.88;;;3.95;;
64550;SDS011;50945;44.472;-123.352;2023-05-27T04:06:29;6.30;;;3.70;;
64550;SDS011;50945;44.472;-123.352;2023-05-27T04:08:57;5.35;;;3.97;;
64550;SDS011;50945;44.472;-123.352;2023-05-27T04:11:27;6.07;;;3.38;;
64550;SDS011;50945;44.472;-123.352;2023-05-27T04:13:53;4.95;;;3.38;;
64550;SDS011;50945;44.472;-123.352;2023-05-27T04:16:21;5.88;;;3.65;;
64550;SDS011;50945;44.472;-123.352;2023-05-27T04:18:50;4.85;;;3.85;;
64550;SDS011;50945;44.472;-123.352;2023-05-27T04:21:17;7.07;;;3.88;;
64550;SDS011;50945;44.472;-123.352;2023-05-27T04:23:47;10.02;;;5.07;;
64550;SDS011;50945;44.472;-123.352;2023-05-27T04:26:19;6.22;;;3.58;;
64550;SDS011;50945;44.472;-123.352;2023-05-27T04:28:53;7.35;;;3.55;;
64550;SDS011;50945;44.472;-123.352;2023-05-27T04:31:29;6.40;;;3.45;;
64550;SDS011;50945;44.472;-123.352;2023-05-27T04:33:55;5.03;;;3.65;;
64550;SDS011;50945;44.472;-123.352;2023-05-27T04:36:31;5.70;;;3.80;;
64550;SDS011;50945;44.472;-123.352;2023-05-27T04:38:58;7.03;;;3.90;;
64550;SDS011;50945;44.472;-123.352;2023-05-27T04:41:30;6.18;;;4.70;;
64550;SDS011;50945;44.472;-123.352;2023-05-27T04:43:58;5.10;;;3.20;;
64550;SDS011;50945;44.472;-123.352;2023-05-27T04:46:26;8.82;;;3.72;;
64550;SDS011;50945;44.472;-123.352;2023-05-27T04:48:53;6.07;;;3.40;;
64550;SDS011;50945;44.472;-123.352;2023-05-27T04:51:22;5.97;;;3.22;;
64550;SDS011;50945;44.472;-123.352;2023-05-27T04:53:49;4.45;;;3.78;;
64550;SDS011;50945;44.472;-123.352;2023-05-27T04:56:15;4.75;;;3.30;;
64550;SDS011;50945;44.472;-123.352;2023-05-27T04:58:45;7.18;;;3.72;;
64550;SDS011;50945;44.472;-123.352;2023-05-27T05:01:14;8.07;;;4.00;;
64550;SDS011;50945;44.472;-123.352;2023-05-27T05:03:44;6.63;;;3.60;;
64550;SDS011;50945;44.472;-123.352;2023-05-27T05:06:29;7.07;;;3.13;;
64550;SDS011;50945;44.472;-123.352;2023-05-27T05:08:55;5.20;;;3.17;;
64550;SDS011;50945;44.472;-123.352;2023-05-27T05:11:30;6.55;;;3.30;;
64550;SDS011;50945;44.472;-123.352;2023-05-27T05:13:57;3.55;;;3.10;;
64550;SDS011;50945;44.472;-123.352;2023-05-27T05:16:23;3.72;;;3.03;;
64550;SDS011;50945;44.472;-123.352;2023-05-27T05:18:49;3.47;;;3.00;;
64550;SDS011;50945;44.472;-123.352;2023-05-27T05:21:15;5.93;;;3.20;;
64550;SDS011;50945;44.472;-123.352;2023-05-27T05:23:42;5.70;;;3.33;;
64550;SDS011;50945;44.472;-123.352;2023-05-27T05:26:08;7.65;;;3.60;;
64550;SDS011;50945;44.472;-123.352;2023-05-27T05:28:34;5.05;;;3.28;;
64550;SDS011;50945;44.472;-123.352;2023-05-27T05:31:03;3.72;;;2.95;;
64550;SDS011;50945;44.472;-123.352;2023-05-27T05:33:29;7.22;;;3.58;;
64550;SDS011;50945;44.472;-123.352;2023-05-27T05:35:56;5.03;;;3.20;;
64550;SDS011;50945;44.472;-123.352;2023-05-27T05:38:22;3.92;;;3.25;;
64550;SDS011;50945;44.472;-123.352;2023-05-27T05:40:48;3.50;;;2.90;;
64550;SDS011;50945;44.472;-123.352;2023-05-27T05:43:17;6.20;;;3.60;;
64550;SDS011;50945;44.472;-123.352;2023-05-27T05:45:44;15.18;;;3.97;;
64550;SDS011;50945;44.472;-123.352;2023-05-27T05:48:10;8.95;;;3.80;;
64550;SDS011;50945;44.472;-123.352;2023-05-27T05:50:36;5.15;;;3.30;;
64550;SDS011;50945;44.472;-123.352;2023-05-27T05:53:02;4.78;;;3.10;;
64550;SDS011;50945;44.472;-123.352;2023-05-27T05:55:29;3.33;;;2.97;;
64550;SDS011;50945;44.472;-123.352;2023-05-27T05:57:55;5.18;;;3.30;;
64550;SDS011;50945;44.472;-123.352;2023-05-27T06:00:21;6.05;;;3.25;;
64550;SDS011;50945;44.472;-123.352;2023-05-27T06:02:49;5.47;;;3.50;;
64550;SDS011;50945;44.472;-123.352;2023-05-27T06:05:16;5.72;;;3.42;;
64550;SDS011;50945;44.472;-123.352;2023-05-27T06:07:45;6.70;;;3.33;;
64550;SDS011;50945;44.472;-123.352;2023-05-27T06:10:11;4.85;;;3.30;;
64550;SDS011;50945;44.472;-123.352;2023-05-27T06:12:38;4.18;;;3.42;;
64550;SDS011;50945;44.472;-123.352;2023-05-27T06:15:08;4.57;;;3.30;;
64550;SDS011;50945;44.472;-123.352;2023-05-27T06:17:38;3.70;;;3.08;;
64550;SDS011;50945;44.472;-123.352;2023-05-27T06:20:04;7.32;;;3.40;;
64550;SDS011;50945;44.472;-123.352;2023-05-27T06:22:33;4.35;;;3.30;;
64550;SDS011;50945;44.472;-123.352;2023-05-27T06:25:02;4.32;;;3.10;;
64550;SDS011;50945;44.472;-123.352;2023-05-27T06:27:28;3.22;;;2.90;;
64550;SDS011;50945;44.472;-123.352;2023-05-27T06:29:54;4.85;;;3.58;;
64550;SDS011;50945;44.472;-123.352;2023-05-27T06:32:21;6.05;;;3.50;;
64550;SDS011;50945;44.472;-123.352;2023-05-27T06:34:50;6.07;;;3.60;;
64550;SDS011;50945;44.472;-123.352;2023-05-27T06:37:18;3.53;;;3.17;;
64550;SDS011;50945;44.472;-123.352;2023-05-27T06:39:49;4.07;;;3.60;;
64550;SDS011;50945;44.472;-123.352;2023-05-27T06:42:16;5.60;;;2.67;;
64550;SDS011;50945;44.472;-123.352;2023-05-27T06:44:44;5.70;;;3.08;;
64550;SDS011;50945;44.472;-123.352;2023-05-27T06:47:10;4.25;;;3.10;;
64550;SDS011;50945;44.472;-123.352;2023-05-27T06:49:39;3.75;;;3.05;;
64550;SDS011;50945;44.472;-123.352;2023-05-27T06:52:07;5.25;;;2.95;;
64550;SDS011;50945;44.472;-123.352;2023-05-27T06:54:33;4.45;;;3.30;;
64550;SDS011;50945;44.472;-123.352;2023-05-27T06:57:01;7.13;;;3.13;;
64550;SDS011;50945;44.472;-123.352;2023-05-27T06:59:30;3.83;;;2.65;;
64550;SDS011;50945;44.472;-123.352;2023-05-27T07:01:56;3.42;;;2.70;;
64550;SDS011;50945;44.472;-123.352;2023-05-27T07:04:23;4.03;;;3.25;;
64550;SDS011;50945;44.472;-123.352;2023-05-27T07:06:50;5.07;;;3.17;;
64550;SDS011;50945;44.472;-123.352;2023-05-27T07:09:16;4.10;;;2.90;;
64550;SDS011;50945;44.472;-123.352;2023-05-27T07:11:45;5.65;;;3.13;;
64550;SDS011;50945;44.472;-123.352;2023-05-27T07:14:11;4.55;;;2.85;;
64550;SDS011;50945;44.472;-123.352;2023-05-27T07:16:38;3.17;;;2.88;;
64550;SDS011;50945;44.472;-123.352;2023-05-27T07:19:04;2.83;;;2.58;;
64550;SDS011;50945;44.472;-123.352;2023-05-27T07:21:31;5.13;;;2.97;;
64550;SDS011;50945;44.472;-123.352;2023-05-27T07:23:57;4.22;;;2.70;;
64550;SDS011;50945;44.472;-123.352;2023-05-27T07:26:24;2.72;;;2.42;;
64550;SDS011;50945;44.472;-123.352;2023-05-27T07:28:53;4.72;;;2.70;;
64550;SDS011;50945;44.472;-123.352;2023-05-27T07:31:19;3.45;;;2.60;;
64550;SDS011;50945;44.472;-123.352;2023-05-27T07:33:48;7.05;;;3.40;;
64550;SDS011;50945;44.472;-123.352;2023-05-27T07:36:16;5.25;;;2.67;;
64550;SDS011;50945;44.472;-123.352;2023-05-27T07:38:42;4.40;;;2.85;;
64550;SDS011;50945;44.472;-123.352;2023-05-27T07:41:08;3.35;;;2.83;;
64550;SDS011;50945;44.472;-123.352;2023-05-27T07:43:38;3.13;;;2.42;;
64550;SDS011;50945;44.472;-123.352;2023-05-27T07:46:04;3.15;;;2.47;;
64550;SDS011;50945;44.472;-123.352;2023-05-27T07:48:30;2.85;;;2.58;;
64550;SDS011;50945;44.472;-123.352;2023-05-27T07:55:48;3.15;;;2.63;;
64550;SDS011;50945;44.472;-123.352;2023-05-27T07:58:15;4.80;;;2.85;;
64550;SDS011;50945;44.472;-123.352;2023-05-27T08:00:44;4.15;;;2.70;;
64550;SDS011;50945;44.472;-123.352;2023-05-27T08:03:10;3.78;;;3.03;;
64550;SDS011;50945;44.472;-123.352;2023-05-27T08:05:36;3.35;;;2.45;;
64550;SDS011;50945;44.472;-123.352;2023-05-27T08:08:03;3.22;;;2.55;;
64550;SDS011;50945;44.472;-123.352;2023-05-27T08:10:29;4.15;;;2.88;;
64550;SDS011;50945;44.472;-123.352;2023-05-27T08:12:55;3.72;;;2.85;;
64550;SDS011;50945;44.472;-123.352;2023-05-27T08:15:24;2.60;;;2.38;;
64550;SDS011;50945;44.472;-123.352;2023-05-27T08:17:50;4.47;;;2.60;;
64550;SDS011;50945;44.472;-123.352;2023-05-27T08:20:16;3.03;;;2.47;;
64550;SDS011;50945;44.472;-123.352;2023-05-27T08:22:42;4.78;;;3.05;;
64550;SDS011;50945;44.472;-123.352;2023-05-27T08:25:09;3.75;;;2.80;;
64550;SDS011;50945;44.472;-123.352;2023-05-27T08:27:45;3.00;;;2.72;;
64550;SDS011;50945;44.472;-123.352;2023-05-27T08:30:17;3.80;;;2.58;;
64550;SDS011;50945;44.472;-123.352;2023-05-27T08:32:44;3.42;;;2.90;;
64550;SDS011;50945;44.472;-123.352;2023-05-27T08:35:11;2.53;;;2.28;;
64550;SDS011;50945;44.472;-123.352;2023-05-27T08:37:38;4.22;;;2.63;;
64550;SDS011;50945;44.472;-123.352;2023-05-27T08:42:36;3.65;;;2.28;;
64550;SDS011;50945;44.472;-123.352;2023-05-27T08:45:05;3.13;;;2.55;;
64550;SDS011;50945;44.472;-123.352;2023-05-27T08:47:32;3.38;;;2.22;;
64550;SDS011;50945;44.472;-123.352;2023-05-27T08:49:59;4.32;;;2.35;;
64550;SDS011;50945;44.472;-123.352;2023-05-27T08:52:26;5.15;;;2.42;;
64550;SDS011;50945;44.472;-123.352;2023-05-27T08:54:54;5.38;;;2.42;;
64550;SDS011;50945;44.472;-123.352;2023-05-27T08:57:30;5.50;;;2.63;;
64550;SDS011;50945;44.472;-123.352;2023-05-27T08:59:58;3.75;;;2.40;;
64550;SDS011;50945;44.472;-123.352;2023-05-27T09:02:25;2.83;;;2.50;;
64550;SDS011;50945;44.472;-123.352;2023-05-27T09:04:56;3.83;;;2.75;;
64550;SDS011;50945;44.472;-123.352;2023-05-27T09:07:22;3.88;;;2.55;;
64550;SDS011;50945;44.472;-123.352;2023-05-27T09:09:57;3.63;;;2.55;;
64550;SDS011;50945;44.472;-123.352;2023-05-27T09:12:24;4.25;;;2.40;;
64550;SDS011;50945;44.472;-123.352;2023-05-27T09:14:51;2.78;;;2.42;;
64550;SDS011;50945;44.472;-123.352;2023-05-27T09:17:17;2.88;;;2.53;;
64550;SDS011;50945;44.472;-123.352;2023-05-27T09:19:44;4.63;;;2.75;;
64550;SDS011;50945;44.472;-123.352;2023-05-27T09:22:20;6.80;;;2.72;;
64550;SDS011;50945;44.472;-123.352;2023-05-27T09:24:48;2.33;;;2.13;;
64550;SDS011;50945;44.472;-123.352;2023-05-27T09:27:15;3.47;;;2.33;;
64550;SDS011;50945;44.472;-123.352;2023-05-27T09:29:41;2.40;;;2.20;;
64550;SDS011;50945;44.472;-123.352;2023-05-27T09:32:07;2.95;;;2.35;;
64550;SDS011;50945;44.472;-123.352;2023-05-27T09:34:37;2.20;;;2.03;;
64550;SDS011;50945;44.472;-123.352;2023-05-27T09:37:04;3.80;;;2.55;;
64550;SDS011;50945;44.472;-123.352;2023-05-27T09:39:32;2.50;;;2.30;;
64550;SDS011;50945;44.472;-123.352;2023-05-27T09:42:01;3.33;;;2.30;;
64550;SDS011;50945;44.472;-123.352;2023-05-27T09:44:34;2.60;;;2.40;;
64550;SDS011;50945;44.472;-123.352;2023-05-27T09:47:07;3.22;;;2.30;;
64550;SDS011;50945;44.472;-123.352;2023-05-27T09:49:37;3.03;;;2.40;;
64550;SDS011;50945;44.472;-123.352;2023-05-27T09:52:05;4.70;;;2.95;;
64550;SDS011;50945;44.472;-123.352;2023-05-27T09:54:34;3.65;;;3.05;;
64550;SDS011;50945;44.472;-123.352;2023-05-27T09:57:03;5.63;;;3.25;;
64550;SDS011;50945;44.472;-123.352;2023-05-27T09:59:31;3.30;;;3.00;;
64550;SDS011;50945;44.472;-123.352;2023-05-27T10:01:58;4.82;;;3.30;;
64550;SDS011;50945;44.472;-123.352;2023-05-27T10:04:28;6.25;;;3.10;;
64550;SDS011;50945;44.472;-123.352;2023-05-27T10:06:55;6.32;;;3.60;;
64550;SDS011;50945;44.472;-123.352;2023-05-27T10:09:23;6.20;;;3.33;;
64550;SDS011;50945;44.472;-123.352;2023-05-27T10:11:49;6.22;;;3.65;;
64550;SDS011;50945;44.472;-123.352;2023-05-27T10:14:16;6.60;;;3.70;;
64550;SDS011;50945;44.472;-123.352;2023-05-27T10:16:55;4.70;;;3.10;;
64550;SDS011;50945;44.472;-123.352;2023-05-27T10:19:21;4.60;;;2.92;;
64550;SDS011;50945;44.472;-123.352;2023-05-27T10:21:48;5.03;;;2.65;;
64550;SDS011;50945;44.472;-123.352;2023-05-27T10:24:14;4.53;;;3.10;;
64550;SDS011;50945;44.472;-123.352;2023-05-27T10:26:44;3.88;;;2.63;;
64550;SDS011;50945;44.472;-123.352;2023-05-27T10:29:14;4.75;;;2.50;;
64550;SDS011;50945;44.472;-123.352;2023-05-27T10:34:14;2.72;;;2.33;;
64550;SDS011;50945;44.472;-123.352;2023-05-27T10:36:41;3.63;;;3.03;;
64550;SDS011;50945;44.472;-123.352;2023-05-27T10:39:12;4.68;;;2.80;;
64550;SDS011;50945;44.472;-123.352;2023-05-27T10:41:53;3.83;;;2.80;;
64550;SDS011;50945;44.472;-123.352;2023-05-27T10:44:37;2.88;;;2.22;;
64550;SDS011;50945;44.472;-123.352;2023-05-27T10:49:36;4.68;;;2.05;;
64550;SDS011;50945;44.472;-123.352;2023-05-27T10:52:08;6.15;;;2.10;;
64550;SDS011;50945;44.472;-123.352;2023-05-27T10:54:39;3.40;;;2.53;;
64550;SDS011;50945;44.472;-123.352;2023-05-27T10:57:06;5.32;;;2.72;;
64550;SDS011;50945;44.472;-123.352;2023-05-27T10:59:54;3.15;;;2.78;;
64550;SDS011;50945;44.472;-123.352;2023-05-27T11:02:21;4.30;;;3.20;;
64550;SDS011;50945;44.472;-123.352;2023-05-27T11:04:50;7.50;;;3.08;;
64550;SDS011;50945;44.472;-123.352;2023-05-27T11:07:17;5.10;;;3.80;;
64550;SDS011;50945;44.472;-123.352;2023-05-27T11:09:49;5.53;;;3.25;;
64550;SDS011;50945;44.472;-123.352;2023-05-27T11:12:15;3.42;;;3.08;;
64550;SDS011;50945;44.472;-123.352;2023-05-27T11:14:43;3.92;;;3.47;;
64550;SDS011;50945;44.472;-123.352;2023-05-27T11:17:10;4.93;;;2.70;;
64550;SDS011;50945;44.472;-123.352;2023-05-27T11:19:40;4.30;;;3.10;;
64550;SDS011;50945;44.472;-123.352;2023-05-27T11:22:11;6.72;;;3.60;;
64550;SDS011;50945;44.472;-123.352;2023-05-27T11:24:39;5.28;;;3.40;;
64550;SDS011;50945;44.472;-123.352;2023-05-27T11:27:09;4.35;;;3.30;;
64550;SDS011;50945;44.472;-123.352;2023-05-27T11:29:40;4.05;;;3.10;;
64550;SDS011;50945;44.472;-123.352;2023-05-27T11:32:17;3.47;;;3.10;;
64550;SDS011;50945;44.472;-123.352;2023-05-27T11:34:44;4.57;;;2.95;;
64550;SDS011;50945;44.472;-123.352;2023-05-27T11:37:11;4.05;;;3.35;;
64550;SDS011;50945;44.472;-123.352;2023-05-27T11:39:37;5.13;;;3.45;;
64550;SDS011;50945;44.472;-123.352;2023-05-27T11:42:14;3.63;;;3.08;;
64550;SDS011;50945;44.472;-123.352;2023-05-27T11:44:49;5.55;;;3.15;;
64550;SDS011;50945;44.472;-123.352;2023-05-27T11:47:16;5.05;;;3.53;;
64550;SDS011;50945;44.472;-123.352;2023-05-27T11:49:43;4.38;;;3.30;;
64550;SDS011;50945;44.472;-123.352;2023-05-27T11:52:10;5.28;;;3.55;;
64550;SDS011;50945;44.472;-123.352;2023-05-27T11:54:39;3.67;;;3.20;;
64550;SDS011;50945;44.472;-123.352;2023-05-27T11:57:06;5.22;;;3.33;;
64550;SDS011;50945;44.472;-123.352;2023-05-27T12:02:00;4.47;;;3.30;;
64550;SDS011;50945;44.472;-123.352;2023-05-27T12:04:26;4.22;;;2.97;;
64550;SDS011;50945;44.472;-123.352;2023-05-27T12:06:52;4.53;;;2.72;;
64550;SDS011;50945;44.472;-123.352;2023-05-27T12:09:18;5.28;;;3.85;;
64550;SDS011;50945;44.472;-123.352;2023-05-27T12:11:45;5.65;;;3.05;;
64550;SDS011;50945;44.472;-123.352;2023-05-27T12:14:11;4.28;;;2.67;;
64550;SDS011;50945;44.472;-123.352;2023-05-27T12:16:37;4.55;;;3.30;;
64550;SDS011;50945;44.472;-123.352;2023-05-27T12:19:06;3.65;;;2.97;;
64550;SDS011;50945;44.472;-123.352;2023-05-27T12:21:36;5.00;;;3.15;;
64550;SDS011;50945;44.472;-123.352;2023-05-27T12:24:03;3.75;;;2.65;;
64550;SDS011;50945;44.472;-123.352;2023-05-27T12:26:29;3.60;;;3.28;;
64550;SDS011;50945;44.472;-123.352;2023-05-27T12:28:56;5.63;;;2.72;;
64550;SDS011;50945;44.472;-123.352;2023-05-27T12:31:22;10.73;;;3.10;;
64550;SDS011;50945;44.472;-123.352;2023-05-27T12:33:48;3.40;;;2.50;;
64550;SDS011;50945;44.472;-123.352;2023-05-27T12:36:14;5.70;;;2.83;;
64550;SDS011;50945;44.472;-123.352;2023-05-27T12:38:41;4.68;;;2.88;;
64550;SDS011;50945;44.472;-123.352;2023-05-27T12:41:07;4.38;;;3.03;;
64550;SDS011;50945;44.472;-123.352;2023-05-27T12:43:36;3.30;;;2.75;;
64550;SDS011;50945;44.472;-123.352;2023-05-27T12:46:02;5.30;;;3.00;;
64550;SDS011;50945;44.472;-123.352;2023-05-27T12:48:29;4.82;;;2.63;;
64550;SDS011;50945;44.472;-123.352;2023-05-27T12:50:56;4.07;;;3.08;;
64550;SDS011;50945;44.472;-123.352;2023-05-27T12:53:22;2.88;;;2.42;;
64550;SDS011;50945;44.472;-123.352;2023-05-27T12:55:48;5.00;;;2.72;;
64550;SDS011;50945;44.472;-123.352;2023-05-27T12:58:14;6.43;;;2.65;;
64550;SDS011;50945;44.472;-123.352;2023-05-27T13:00:41;3.50;;;2.15;;
64550;SDS011;50945;44.472;-123.352;2023-05-27T13:03:10;4.32;;;2.60;;
64550;SDS011;50945;44.472;-123.352;2023-05-27T13:05:39;3.53;;;2.92;;
64550;SDS011;50945;44.472;-123.352;2023-05-27T13:08:05;4.47;;;2.40;;
64550;SDS011;50945;44.472;-123.352;2023-05-27T13:12:58;5.60;;;2.83;;
64550;SDS011;50945;44.472;-123.352;2023-05-27T13:15:26;3.63;;;2.78;;
64550;SDS011;50945;44.472;-123.352;2023-05-27T13:17:53;5.25;;;2.60;;
64550;SDS011;50945;44.472;-123.352;2023-05-27T13:20:20;5.95;;;2.75;;
64550;SDS011;50945;44.472;-123.352;2023-05-27T13:22:48;4.10;;;2.90;;
64550;SDS011;50945;44.472;-123.352;2023-05-27T13:25:15;5.45;;;2.97;;
64550;SDS011;50945;44.472;-123.352;2023-05-27T13:27:42;6.82;;;2.92;;
64550;SDS011;50945;44.472;-123.352;2023-05-27T13:30:15;7.85;;;2.70;;
64550;SDS011;50945;44.472;-123.352;2023-05-27T13:32:42;3.55;;;2.30;;
64550;SDS011;50945;44.472;-123.352;2023-05-27T13:37:38;2.42;;;2.25;;
64550;SDS011;50945;44.472;-123.352;2023-05-27T13:40:05;3.65;;;2.50;;
64550;SDS011;50945;44.472;-123.352;2023-05-27T13:42:33;3.90;;;2.80;;
64550;SDS011;50945;44.472;-123.352;2023-05-27T13:44:59;4.03;;;2.67;;
64550;SDS011;50945;44.472;-123.352;2023-05-27T13:47:25;2.85;;;2.33;;
64550;SDS011;50945;44.472;-123.352;2023-05-27T13:49:51;5.28;;;2.67;;
64550;SDS011;50945;44.472;-123.352;2023-05-27T13:52:20;6.78;;;2.60;;
64550;SDS011;50945;44.472;-123.352;2023-05-27T13:54:49;3.83;;;2.35;;
64550;SDS011;50945;44.472;-123.352;2023-05-27T13:57:15;4.75;;;2.65;;
64550;SDS011;50945;44.472;-123.352;2023-05-27T13:59:41;4.43;;;2.78;;
64550;SDS011;50945;44.472;-123.352;2023-05-27T14:02:08;5.07;;;2.95;;
64550;SDS011;50945;44.472;-123.352;2023-05-27T14:04:37;6.88;;;2.92;;
64550;SDS011;50945;44.472;-123.352;2023-05-27T14:07:03;3.97;;;3.08;;
64550;SDS011;50945;44.472;-123.352;2023-05-27T14:09:29;6.85;;;3.17;;
64550;SDS011;50945;44.472;-123.352;2023-05-27T14:11:58;3.30;;;2.83;;
64550;SDS011;50945;44.472;-123.352;2023-05-27T14:14:25;6.75;;;3.17;;
64550;SDS011;50945;44.472;-123.352;2023-05-27T14:16:51;5.85;;;3.35;;
64550;SDS011;50945;44.472;-123.352;2023-05-27T14:19:17;4.35;;;3.50;;
64550;SDS011;50945;44.472;-123.352;2023-05-27T14:21:43;6.47;;;4.05;;
64550;SDS011;50945;44.472;-123.352;2023-05-27T14:24:10;3.65;;;3.17;;
64550;SDS011;50945;44.472;-123.352;2023-05-27T14:26:40;4.57;;;3.20;;
64550;SDS011;50945;44.472;-123.352;2023-05-27T14:29:09;3.83;;;2.88;;
64550;SDS011;50945;44.472;-123.352;2023-05-27T14:31:35;3.70;;;2.72;;
64550;SDS011;50945;44.472;-123.352;2023-05-27T14:34:02;4.70;;;2.47;;
64550;SDS011;50945;44.472;-123.352;2023-05-27T14:36:28;4.05;;;2.67;;
64550;SDS011;50945;44.472;-123.352;2023-05-27T14:38:54;4.35;;;2.78;;
64550;SDS011;50945;44.472;-123.352;2023-05-27T14:41:20;3.45;;;2.92;;
64550;SDS011;50945;44.472;-123.352;2023-05-27T14:43:47;4.10;;;3.08;;
64550;SDS011;50945;44.472;-123.352;2023-05-27T14:46:15;3.42;;;2.83;;
64550;SDS011;50945;44.472;-123.352;2023-05-27T14:48:42;5.70;;;3.70;;
64550;SDS011;50945;44.472;-123.352;2023-05-27T14:51:08;4.13;;;2.42;;
64550;SDS011;50945;44.472;-123.352;2023-05-27T14:53:34;3.50;;;2.58;;
64550;SDS011;50945;44.472;-123.352;2023-05-27T14:56:01;3.10;;;2.80;;
64550;SDS011;50945;44.472;-123.352;2023-05-27T14:58:27;3.22;;;2.72;;